createdAt,value
2018-09-26T00:00:17.787Z,62.50
2018-09-26T00:02:57.421Z,62.90
2018-09-26T00:05:28.876Z,62.90
2018-09-26T00:08:00.211Z,63.00
2018-09-26T00:10:31.574Z,63.50
2018-09-26T00:13:02.952Z,63.30
2018-09-26T00:15:34.225Z,63.50
2018-09-26T00:18:05.513Z,63.60
2018-09-26T00:20:37.104Z,64.10
2018-09-26T00:23:08.707Z,64.20
2018-09-26T00:25:40.102Z,64.80
2018-09-26T00:28:11.256Z,64.50
2018-09-26T00:30:42.528Z,65.00
2018-09-26T00:33:13.768Z,65.20
2018-09-26T00:35:45.813Z,65.30
2018-09-26T00:38:17.166Z,65.50
2018-09-26T00:40:48.508Z,65.10
2018-09-26T00:43:19.887Z,65.20
2018-09-26T00:45:51.196Z,65.10
2018-09-26T00:48:22.355Z,65.00
2018-09-26T00:50:53.715Z,64.80
2018-09-26T00:53:25.242Z,64.80
2018-09-26T00:55:56.607Z,65.00
2018-09-26T00:58:27.794Z,64.70
2018-09-26T01:00:59.243Z,64.70
2018-09-26T01:03:30.546Z,64.50
2018-09-26T01:06:01.681Z,65.50
2018-09-26T01:08:32.941Z,64.70
2018-09-26T01:11:04.114Z,64.90
2018-09-26T01:13:35.939Z,65.00
2018-09-26T01:16:07.176Z,64.70
2018-09-26T01:18:39.236Z,64.60
2018-09-26T01:21:10.542Z,64.50
2018-09-26T01:23:41.992Z,64.80
2018-09-26T01:26:13.160Z,64.50
2018-09-26T01:28:44.520Z,64.50
2018-09-26T01:31:15.859Z,65.10
2018-09-26T01:33:47.523Z,65.00
2018-09-26T01:36:19.204Z,65.30
2018-09-26T01:38:50.627Z,65.00
2018-09-26T01:41:22.248Z,64.60
2018-09-26T01:43:53.438Z,65.00
2018-09-26T01:46:24.912Z,65.50
2018-09-26T01:48:56.382Z,65.70
2018-09-26T01:51:27.694Z,65.90
2018-09-26T01:53:59.129Z,65.90
2018-09-26T01:56:30.703Z,65.70
2018-09-26T01:59:01.984Z,65.20
2018-09-26T02:01:33.604Z,65.80
2018-09-26T02:04:04.821Z,66.00
2018-09-26T02:06:36.284Z,66.60
2018-09-26T02:09:11.243Z,66.70
2018-09-26T02:11:42.387Z,66.80
2018-09-26T02:14:13.519Z,66.50
2018-09-26T02:16:44.665Z,66.60
2018-09-26T02:19:15.660Z,66.80
2018-09-26T02:21:46.858Z,66.50
2018-09-26T02:24:18.236Z,66.10
2018-09-26T02:26:49.321Z,65.80
2018-09-26T02:29:20.584Z,65.80
2018-09-26T02:31:51.733Z,65.80
2018-09-26T02:34:23.187Z,66.10
2018-09-26T02:36:54.473Z,66.70
2018-09-26T02:39:25.879Z,66.60
2018-09-26T02:41:57.008Z,66.70
2018-09-26T02:44:28.163Z,66.50
2018-09-26T02:46:59.424Z,66.50
2018-09-26T02:49:30.651Z,66.50
2018-09-26T02:52:02.316Z,66.80
2018-09-26T02:54:33.571Z,67.50
2018-09-26T02:57:04.807Z,67.70
2018-09-26T02:59:36.242Z,67.60
2018-09-26T03:02:07.590Z,68.10
2018-09-26T03:04:38.833Z,68.40
2018-09-26T03:07:10.091Z,68.30
2018-09-26T03:09:42.380Z,68.60
2018-09-26T03:12:13.744Z,68.60
2018-09-26T03:14:45.162Z,68.60
2018-09-26T03:17:16.293Z,68.80
2018-09-26T03:19:47.436Z,69.00
2018-09-26T03:22:19.048Z,69.20
2018-09-26T03:24:50.450Z,70.10
2018-09-26T03:27:21.683Z,70.40
2018-09-26T03:29:53.044Z,70.50
2018-09-26T03:32:24.510Z,70.80
2018-09-26T03:34:55.544Z,70.70
2018-09-26T03:37:26.836Z,70.60
2018-09-26T03:39:58.111Z,70.50
2018-09-26T03:42:29.280Z,69.80
2018-09-26T03:45:00.477Z,70.10
2018-09-26T03:47:31.778Z,70.10
2018-09-26T03:50:02.910Z,70.50
2018-09-26T03:52:34.330Z,71.20
2018-09-26T03:55:05.968Z,70.70
2018-09-26T03:57:37.335Z,70.80
2018-09-26T04:00:08.808Z,70.80
2018-09-26T04:02:40.340Z,70.80
2018-09-26T04:05:11.468Z,71.00
2018-09-26T04:07:42.916Z,71.20
2018-09-26T04:10:14.211Z,71.10
2018-09-26T04:12:45.646Z,71.00
2018-09-26T04:15:17.019Z,71.20
2018-09-26T04:17:48.293Z,71.50
2018-09-26T04:20:19.679Z,71.40
2018-09-26T04:22:50.962Z,71.50
2018-09-26T04:25:22.379Z,71.70
2018-09-26T04:27:53.687Z,73.00
2018-09-26T04:30:24.866Z,72.40
2018-09-26T04:32:56.265Z,72.30
2018-09-26T04:35:27.715Z,72.10
2018-09-26T04:37:59.015Z,72.30
2018-09-26T04:40:30.390Z,72.80
2018-09-26T04:43:01.801Z,72.70
2018-09-26T04:45:33.206Z,72.40
2018-09-26T04:48:04.599Z,72.60
2018-09-26T04:50:36.100Z,72.60
2018-09-26T04:53:07.538Z,72.60
2018-09-26T04:55:38.555Z,72.60
2018-09-26T04:58:09.937Z,72.60
2018-09-26T05:00:41.710Z,72.00
2018-09-26T05:03:12.834Z,72.30
2018-09-26T05:05:44.288Z,71.30
2018-09-26T05:08:15.805Z,69.70
2018-09-26T05:10:47.287Z,68.40
2018-09-26T05:13:18.644Z,70.60
2018-09-26T05:15:49.984Z,71.50
2018-09-26T05:18:21.525Z,76.00
2018-09-26T05:20:52.961Z,72.60
2018-09-26T05:23:24.166Z,70.30
2018-09-26T05:25:55.869Z,68.80
2018-09-26T05:28:27.134Z,62.30
2018-09-26T05:30:58.328Z,60.90
2018-09-26T05:33:29.628Z,60.00
2018-09-26T05:36:01.019Z,60.00
2018-09-26T05:38:32.673Z,59.00
2018-09-26T05:41:04.151Z,57.70
2018-09-26T05:43:35.712Z,57.00
2018-09-26T05:46:07.137Z,56.00
2018-09-26T05:48:38.539Z,54.50
2018-09-26T05:51:10.045Z,56.80
2018-09-26T05:53:41.430Z,58.20
2018-09-26T05:56:12.808Z,58.70
2018-09-26T05:58:43.923Z,56.40
2018-09-26T06:01:15.743Z,53.10
2018-09-26T06:03:47.336Z,53.30
2018-09-26T06:06:18.773Z,52.70
2018-09-26T06:08:49.967Z,53.50
2018-09-26T06:11:21.290Z,52.70
2018-09-26T06:13:52.804Z,51.80
2018-09-26T06:16:23.854Z,51.50
2018-09-26T06:18:55.068Z,51.60
2018-09-26T06:21:26.308Z,50.40
2018-09-26T06:23:57.597Z,49.90
2018-09-26T06:26:28.961Z,50.30
2018-09-26T06:29:00.090Z,50.00
2018-09-26T06:31:37.964Z,49.30
2018-09-26T06:34:09.115Z,49.30
2018-09-26T06:36:40.888Z,49.20
2018-09-26T06:39:13.132Z,47.50
2018-09-26T06:41:45.325Z,47.30
2018-09-26T06:44:16.720Z,47.10
2018-09-26T06:46:47.938Z,47.40
2018-09-26T06:49:19.575Z,45.90
2018-09-26T06:51:50.972Z,44.50
2018-09-26T06:54:22.202Z,43.80
2018-09-26T06:56:53.222Z,43.10
2018-09-26T06:59:24.724Z,42.70
2018-09-26T07:01:56.159Z,42.60
2018-09-26T07:04:27.398Z,43.50
2018-09-26T07:06:58.691Z,42.30
2018-09-26T07:09:29.967Z,42.70
2018-09-26T07:12:01.349Z,42.60
2018-09-26T07:14:32.663Z,41.40
2018-09-26T07:17:04.184Z,41.90
2018-09-26T07:19:35.879Z,42.30
2018-09-26T07:22:07.136Z,41.80
2018-09-26T07:24:38.460Z,41.50
2018-09-26T07:27:10.417Z,40.40
2018-09-26T07:29:41.872Z,40.30
2018-09-26T07:32:13.240Z,40.10
2018-09-26T07:34:44.678Z,40.40
2018-09-26T07:37:16.125Z,41.00
2018-09-26T07:39:47.407Z,39.40
2018-09-26T07:42:19.041Z,37.80
2018-09-26T07:44:50.443Z,38.00
2018-09-26T07:47:21.820Z,38.40
2018-09-26T07:49:53.255Z,37.00
2018-09-26T07:52:24.655Z,35.70
2018-09-26T07:54:56.199Z,36.30
2018-09-26T07:57:27.477Z,35.50
2018-09-26T07:59:58.999Z,35.10
2018-09-26T08:02:30.749Z,35.70
2018-09-26T08:05:02.026Z,34.30
2018-09-26T08:07:33.037Z,35.40
2018-09-26T08:10:04.493Z,34.70
2018-09-26T08:12:35.853Z,32.90
2018-09-26T08:15:07.382Z,33.00
2018-09-26T08:17:40.250Z,32.40
2018-09-26T08:20:11.478Z,32.10
2018-09-26T08:22:42.733Z,31.90
2018-09-26T08:25:14.200Z,32.10
2018-09-26T08:27:45.662Z,32.70
2018-09-26T08:30:17.168Z,34.10
2018-09-26T08:32:48.745Z,35.20
2018-09-26T08:35:20.003Z,34.90
2018-09-26T08:37:51.469Z,34.20
2018-09-26T08:40:23.276Z,34.30
2018-09-26T08:42:54.459Z,34.30
2018-09-26T08:45:25.955Z,34.30
2018-09-26T08:47:57.273Z,34.60
2018-09-26T08:50:28.808Z,35.00
2018-09-26T08:53:00.079Z,35.20
2018-09-26T08:55:31.500Z,35.10
2018-09-26T08:58:02.884Z,34.10
2018-09-26T09:00:36.855Z,34.20
2018-09-26T09:03:14.716Z,34.60
2018-09-26T09:05:46.040Z,34.10
2018-09-26T09:08:17.463Z,34.80
2018-09-26T09:10:48.612Z,35.00
2018-09-26T09:13:19.963Z,35.20
2018-09-26T09:15:51.604Z,34.00
2018-09-26T09:18:22.871Z,35.00
2018-09-26T09:20:54.095Z,34.40
2018-09-26T09:23:25.562Z,34.20
2018-09-26T09:25:56.831Z,34.80
2018-09-26T09:28:28.260Z,34.90
2018-09-26T09:30:59.289Z,33.30
2018-09-26T09:33:30.693Z,31.10
2018-09-26T09:36:01.879Z,30.00
2018-09-26T09:38:33.227Z,29.60
2018-09-26T09:41:04.704Z,30.30
2018-09-26T09:43:36.552Z,30.40
2018-09-26T09:46:07.926Z,29.20
2018-09-26T09:48:39.029Z,29.10
2018-09-26T09:51:10.497Z,29.40
2018-09-26T09:53:41.744Z,29.20
2018-09-26T09:56:12.815Z,29.30
2018-09-26T09:58:44.088Z,29.80
2018-09-26T10:01:20.294Z,30.60
2018-09-26T10:03:52.071Z,30.20
2018-09-26T10:06:23.412Z,30.20
2018-09-26T10:08:54.737Z,30.40
2018-09-26T10:11:26.151Z,32.50
2018-09-26T10:13:57.524Z,31.80
2018-09-26T10:16:29.000Z,32.10
2018-09-26T10:19:04.425Z,32.30
2018-09-26T10:21:34.953Z,32.10
2018-09-26T10:24:05.488Z,32.00
2018-09-26T10:26:35.803Z,30.40
2018-09-26T10:29:06.500Z,30.20
2018-09-26T10:31:37.027Z,32.00
2018-09-26T10:34:07.488Z,31.00
2018-09-26T10:36:37.797Z,30.60
2018-09-26T10:39:10.060Z,31.40
2018-09-26T10:41:40.536Z,33.90
2018-09-26T10:44:10.990Z,32.60
2018-09-26T10:46:41.678Z,33.70
2018-09-26T10:49:11.984Z,34.90
2018-09-26T10:51:42.788Z,34.10
2018-09-26T10:54:13.230Z,32.30
2018-09-26T10:56:43.807Z,32.40
2018-09-26T10:59:14.388Z,31.80
2018-09-26T11:01:45.053Z,33.00
2018-09-26T11:04:15.474Z,33.10
2018-09-26T11:06:45.776Z,34.50
2018-09-26T11:09:16.239Z,33.10
2018-09-26T11:11:46.841Z,33.50
2018-09-26T11:14:17.474Z,33.10
2018-09-26T11:16:47.840Z,33.20
2018-09-26T11:19:18.418Z,31.50
2018-09-26T11:21:48.721Z,31.00
2018-09-26T11:24:20.050Z,31.50
2018-09-26T11:26:50.395Z,31.70
2018-09-26T11:29:21.204Z,31.10
2018-09-26T11:31:51.561Z,32.00
2018-09-26T11:34:22.240Z,32.40
2018-09-26T11:36:52.490Z,32.30
2018-09-26T11:39:23.142Z,33.90
2018-09-26T11:41:53.725Z,33.80
2018-09-26T11:44:24.339Z,33.90
2018-09-26T11:46:54.719Z,33.20
2018-09-26T11:49:25.086Z,34.00
2018-09-26T11:51:55.569Z,32.90
2018-09-26T11:54:25.984Z,31.70
2018-09-26T11:56:56.276Z,32.60
2018-09-26T11:59:26.612Z,32.30
2018-09-26T12:01:57.463Z,32.40
2018-09-26T12:04:27.856Z,33.10
2018-09-26T12:06:58.197Z,33.70
2018-09-26T12:09:28.745Z,33.10
2018-09-26T12:11:59.391Z,32.50
2018-09-26T12:14:32.729Z,33.00
2018-09-26T12:17:03.102Z,34.10
2018-09-26T12:19:33.888Z,34.20
2018-09-26T12:22:05.064Z,35.50
2018-09-26T12:24:35.414Z,35.60
2018-09-26T12:27:05.772Z,35.00
2018-09-26T12:29:36.252Z,35.50
2018-09-26T12:32:07.396Z,35.10
2018-09-26T12:34:37.789Z,36.20
2018-09-26T12:37:08.520Z,36.80
2018-09-26T12:39:38.844Z,36.40
2018-09-26T12:42:09.520Z,34.80
2018-09-26T12:44:39.883Z,35.70
2018-09-26T12:47:10.710Z,35.80
2018-09-26T12:49:41.025Z,35.50
2018-09-26T12:52:11.399Z,36.50
2018-09-26T12:54:41.928Z,33.90
2018-09-26T12:57:12.530Z,33.00
2018-09-26T12:59:42.880Z,33.20
2018-09-26T13:02:13.408Z,33.20
2018-09-26T13:04:43.857Z,33.90
2018-09-26T13:07:14.240Z,33.60
2018-09-26T13:09:44.569Z,34.00
2018-09-26T13:12:15.207Z,33.90
2018-09-26T13:14:45.520Z,34.10
2018-09-26T13:17:15.844Z,34.20
2018-09-26T13:19:46.529Z,34.40
2018-09-26T13:22:17.715Z,34.40
2018-09-26T13:24:48.431Z,34.80
2018-09-26T13:27:18.805Z,34.10
2018-09-26T13:29:49.394Z,34.30
2018-09-26T13:32:19.952Z,34.80
2018-09-26T13:34:50.263Z,35.00
2018-09-26T13:37:20.653Z,35.90
2018-09-26T13:39:51.129Z,35.80
2018-09-26T13:42:21.486Z,36.30
2018-09-26T13:44:51.897Z,36.70
2018-09-26T13:47:22.452Z,37.60
2018-09-26T13:49:52.864Z,37.60
2018-09-26T13:52:23.390Z,38.50
2018-09-26T13:54:53.815Z,38.90
2018-09-26T13:57:24.248Z,37.60
2018-09-26T13:59:54.989Z,35.20
2018-09-26T14:02:25.593Z,36.90
2018-09-26T14:04:55.901Z,37.20
2018-09-26T14:07:26.211Z,37.00
2018-09-26T14:09:56.826Z,36.70
2018-09-26T14:12:27.300Z,35.90
2018-09-26T14:14:58.179Z,36.60
2018-09-26T14:17:29.016Z,36.80
2018-09-26T14:19:59.552Z,37.80
2018-09-26T14:22:30.436Z,37.40
2018-09-26T14:25:00.828Z,37.60
2018-09-26T14:27:31.348Z,38.30
2018-09-26T14:30:02.201Z,39.00
2018-09-26T14:32:32.691Z,39.00
2018-09-26T14:35:03.454Z,39.10
2018-09-26T14:37:33.799Z,38.50
2018-09-26T14:40:04.340Z,38.20
2018-09-26T14:42:34.933Z,38.10
2018-09-26T14:45:06.088Z,37.40
2018-09-26T14:47:36.603Z,38.10
2018-09-26T14:50:08.699Z,38.40
2018-09-26T14:52:39.076Z,38.60
2018-09-26T14:55:09.544Z,38.00
2018-09-26T14:57:39.905Z,37.60
2018-09-26T15:00:10.755Z,38.10
2018-09-26T15:02:41.404Z,37.80
2018-09-26T15:05:11.779Z,38.10
2018-09-26T15:07:42.385Z,38.10
2018-09-26T15:10:12.917Z,38.40
2018-09-26T15:12:43.503Z,37.60
2018-09-26T15:15:14.285Z,38.30
2018-09-26T15:17:44.580Z,38.20
2018-09-26T15:20:15.027Z,38.50
2018-09-26T15:22:45.402Z,38.40
2018-09-26T15:25:15.971Z,38.10
2018-09-26T15:27:46.448Z,38.30
2018-09-26T15:30:17.503Z,38.50
2018-09-26T15:32:47.899Z,38.90
2018-09-26T15:35:18.388Z,38.50
2018-09-26T15:37:48.949Z,38.20
2018-09-26T15:40:19.707Z,38.40
2018-09-26T15:42:49.947Z,38.70
2018-09-26T15:45:20.348Z,37.90
2018-09-26T15:47:51.239Z,37.40
2018-09-26T15:50:21.993Z,38.10
2018-09-26T15:52:53.021Z,37.70
2018-09-26T15:55:23.377Z,38.10
2018-09-26T15:57:54.244Z,38.60
2018-09-26T16:00:24.811Z,38.90
2018-09-26T16:02:55.517Z,39.00
2018-09-26T16:05:26.044Z,39.60
2018-09-26T16:07:57.156Z,39.60
2018-09-26T16:10:27.750Z,40.00
2018-09-26T16:12:58.347Z,40.60
2018-09-26T16:15:29.307Z,40.60
2018-09-26T16:17:59.969Z,40.60
2018-09-26T16:20:30.389Z,40.60
2018-09-26T16:23:00.756Z,40.50
2018-09-26T16:25:31.414Z,40.90
2018-09-26T16:28:01.753Z,41.00
2018-09-26T16:30:32.370Z,41.70
2018-09-26T16:33:02.749Z,41.30
2018-09-26T16:35:33.464Z,41.70
2018-09-26T16:38:04.132Z,42.10
2018-09-26T16:40:34.761Z,42.30
2018-09-26T16:43:05.741Z,42.70
2018-09-26T16:45:36.430Z,42.80
2018-09-26T16:48:07.165Z,43.10
2018-09-26T16:50:37.708Z,43.40
2018-09-26T16:53:09.411Z,44.40
2018-09-26T16:55:40.055Z,44.40
2018-09-26T16:58:10.595Z,44.30
2018-09-26T17:00:41.018Z,44.50
2018-09-26T17:03:12.340Z,44.70
2018-09-26T17:05:42.722Z,45.50
2018-09-26T17:08:13.420Z,45.70
2018-09-26T17:10:44.148Z,46.10
2018-09-26T17:13:14.684Z,46.80
2018-09-26T17:15:46.215Z,46.30
2018-09-26T17:18:16.697Z,46.90
2018-09-26T17:20:47.427Z,47.70
2018-09-26T17:23:17.900Z,48.30
2018-09-26T17:25:48.676Z,48.80
2018-09-26T17:28:19.522Z,49.80
2018-09-26T17:30:50.810Z,50.00
2018-09-26T17:33:21.318Z,49.40
2018-09-26T17:35:51.688Z,49.80
2018-09-26T17:38:22.467Z,50.30
2018-09-26T17:40:53.484Z,51.10
2018-09-26T17:43:24.236Z,51.70
2018-09-26T17:45:55.105Z,51.70
2018-09-26T17:48:26.005Z,52.10
2018-09-26T17:50:56.664Z,52.40
2018-09-26T17:53:27.072Z,52.70
2018-09-26T17:55:57.544Z,53.70
2018-09-26T17:58:28.308Z,53.80
2018-09-26T18:00:58.746Z,53.70
2018-09-26T18:03:29.269Z,53.50
2018-09-26T18:06:00.057Z,54.10
2018-09-26T18:08:30.559Z,54.50
2018-09-26T18:11:01.083Z,54.20
2018-09-26T18:13:31.675Z,54.40
2018-09-26T18:16:02.248Z,54.30
2018-09-26T18:18:32.621Z,55.10
2018-09-26T18:21:03.983Z,55.50
2018-09-26T18:23:34.485Z,55.00
2018-09-26T18:26:05.465Z,55.20
2018-09-26T18:28:39.393Z,55.30
2018-09-26T18:31:10.219Z,56.10
2018-09-26T18:33:41.006Z,56.50
2018-09-26T18:36:12.660Z,57.50
2018-09-26T18:38:44.235Z,56.50
2018-09-26T18:41:15.296Z,56.00
2018-09-26T18:43:45.926Z,56.20
2018-09-26T18:46:16.997Z,56.80
2018-09-26T18:48:47.554Z,57.20
2018-09-26T18:51:18.308Z,57.00
2018-09-26T18:53:48.737Z,57.50
2018-09-26T18:56:19.819Z,57.20
2018-09-26T18:58:50.600Z,57.80
2018-09-26T19:01:21.245Z,57.90
2018-09-26T19:03:51.638Z,57.90
2018-09-26T19:06:22.307Z,57.90
2018-09-26T19:08:52.762Z,58.00
2018-09-26T19:11:23.189Z,58.10
2018-09-26T19:13:53.908Z,58.40
2018-09-26T19:16:24.548Z,59.10
2018-09-26T19:18:55.039Z,59.30
2018-09-26T19:21:26.029Z,59.30
2018-09-26T19:23:56.633Z,58.70
2018-09-26T19:26:27.338Z,59.10
2018-09-26T19:28:58.090Z,59.60
2018-09-26T19:31:29.498Z,59.10
2018-09-26T19:34:00.712Z,59.20
2018-09-26T19:36:31.266Z,59.30
2018-09-26T19:39:01.889Z,59.50
2018-09-26T19:41:32.615Z,63.60
2018-09-26T19:44:03.911Z,60.40
2018-09-26T19:46:34.474Z,59.80
2018-09-26T19:49:05.252Z,60.10
2018-09-26T19:51:35.631Z,60.50
2018-09-26T19:54:06.260Z,59.60
2018-09-26T19:56:37.114Z,59.80
2018-09-26T19:59:07.917Z,60.10
2018-09-26T20:01:38.454Z,60.30
2018-09-26T20:04:09.501Z,60.40
2018-09-26T20:06:39.886Z,60.20
2018-09-26T20:09:12.804Z,60.40
2018-09-26T20:11:43.409Z,60.40
2018-09-26T20:14:14.140Z,61.30
2018-09-26T20:16:44.624Z,61.70
2018-09-26T20:19:15.103Z,61.80
2018-09-26T20:21:45.727Z,62.10
2018-09-26T20:24:16.324Z,61.90
2018-09-26T20:26:47.077Z,62.40
2018-09-26T20:29:17.572Z,63.30
2018-09-26T20:31:48.045Z,62.10
2018-09-26T20:34:18.677Z,62.20
2018-09-26T20:36:49.180Z,64.90
2018-09-26T20:39:20.142Z,65.20
2018-09-26T20:41:50.735Z,64.90
2018-09-26T20:44:21.329Z,63.60
2018-09-26T20:46:51.949Z,62.30
2018-09-26T20:49:22.276Z,61.60
2018-09-26T20:51:53.138Z,61.00
2018-09-26T20:54:23.501Z,60.30
2018-09-26T20:56:54.330Z,60.40
2018-09-26T20:59:24.721Z,59.60
2018-09-26T21:01:55.200Z,60.90
2018-09-26T21:04:26.032Z,61.60
2018-09-26T21:06:56.502Z,62.30
2018-09-26T21:09:26.902Z,62.30
2018-09-26T21:11:57.640Z,62.30
2018-09-26T21:14:28.051Z,62.10
2018-09-26T21:16:58.605Z,62.30
2018-09-26T21:19:28.909Z,62.80
2018-09-26T21:21:59.373Z,62.70
2018-09-26T21:24:29.800Z,62.60
2018-09-26T21:27:00.636Z,62.80
2018-09-26T21:29:31.119Z,63.70
2018-09-26T21:32:01.723Z,64.00
2018-09-26T21:34:32.059Z,63.80
2018-09-26T21:37:03.247Z,64.40
2018-09-26T21:39:33.962Z,64.80
2018-09-26T21:42:04.684Z,64.50
2018-09-26T21:44:35.209Z,64.60
2018-09-26T21:47:05.975Z,65.00
2018-09-26T21:49:36.363Z,65.60
2018-09-26T21:52:07.347Z,66.00
2018-09-26T21:54:37.991Z,65.90
2018-09-26T21:57:08.585Z,65.50
2018-09-26T21:59:38.946Z,65.40
2018-09-26T22:02:09.556Z,65.50
2018-09-26T22:04:39.958Z,65.70
2018-09-26T22:07:10.464Z,65.80
2018-09-26T22:09:41.264Z,65.40
2018-09-26T22:12:11.796Z,65.90
2018-09-26T22:14:42.720Z,65.80
2018-09-26T22:17:13.900Z,65.60
2018-09-26T22:19:44.755Z,65.80
2018-09-26T22:22:15.295Z,66.20
2018-09-26T22:24:45.709Z,66.30
2018-09-26T22:27:16.047Z,66.30
2018-09-26T22:29:46.401Z,67.70
2018-09-26T22:32:16.762Z,67.60
2018-09-26T22:34:47.544Z,67.40
2018-09-26T22:37:17.967Z,68.10
2018-09-26T22:39:48.381Z,68.20
2018-09-26T22:42:18.835Z,68.50
2018-09-26T22:44:50.140Z,68.50
2018-09-26T22:47:20.673Z,68.30
2018-09-26T22:49:51.833Z,68.20
2018-09-26T22:52:22.508Z,68.90
2018-09-26T22:54:52.811Z,69.00
2018-09-26T22:57:23.168Z,68.80
2018-09-26T22:59:53.616Z,68.90
2018-09-26T23:02:24.368Z,68.80
2018-09-26T23:04:54.832Z,68.50
2018-09-26T23:07:25.299Z,68.10
2018-09-26T23:09:56.180Z,68.00
2018-09-26T23:12:26.767Z,68.60
2018-09-26T23:14:57.424Z,69.10
2018-09-26T23:17:28.100Z,69.10
2018-09-26T23:19:58.408Z,69.50
2018-09-26T23:22:28.922Z,69.70
2018-09-26T23:24:59.299Z,69.60
2018-09-26T23:27:30.183Z,69.90
2018-09-26T23:30:00.548Z,69.50
2018-09-26T23:32:31.376Z,69.30
2018-09-26T23:35:01.701Z,69.30
2018-09-26T23:37:32.134Z,69.80
2018-09-26T23:40:03.071Z,70.40
2018-09-26T23:42:33.607Z,70.30
2018-09-26T23:45:04.089Z,70.00
2018-09-26T23:47:34.448Z,69.60
2018-09-26T23:50:05.798Z,69.80
2018-09-26T23:52:36.212Z,69.80
2018-09-26T23:55:06.719Z,70.00
2018-09-26T23:57:37.270Z,70.30
